sensor_id;sensor_type;location;lat;lon;timestamp;temperature;humidity
10155;DHT22;5118;48.570;7.916;2024-03-08T00:02:02;1.40;99.90
10155;DHT22;5118;48.570;7.916;2024-03-08T00:04:30;1.40;99.90
10155;DHT22;5118;48.570;7.916;2024-03-08T00:06:59;1.30;99.90
10155;DHT22;5118;48.570;7.916;2024-03-08T00:09:27;1.30;99.90
10155;DHT22;5118;48.570;7.916;2024-03-08T00:11:59;1.30;99.90
10155;DHT22;5118;48.570;7.916;2024-03-08T00:14:27;1.30;99.90
10155;DHT22;5118;48.570;7.916;2024-03-08T00:16:56;1.30;99.90
10155;DHT22;5118;48.570;7.916;2024-03-08T00:19:24;1.30;99.90
10155;DHT22;5118;48.570;7.916;2024-03-08T00:21:53;1.30;99.90
10155;DHT22;5118;48.570;7.916;2024-03-08T00:24:22;1.20;99.90
10155;DHT22;5118;48.570;7.916;2024-03-08T00:26:52;1.20;99.90
10155;DHT22;5118;48.570;7.916;2024-03-08T00:29:22;1.20;99.90
10155;DHT22;5118;48.570;7.916;2024-03-08T00:31:51;1.10;99.90
10155;DHT22;5118;48.570;7.916;2024-03-08T00:34:19;1.10;99.90
10155;DHT22;5118;48.570;7.916;2024-03-08T00:36:48;1.10;99.90
10155;DHT22;5118;48.570;7.916;2024-03-08T00:39:17;1.00;99.90
10155;DHT22;5118;48.570;7.916;2024-03-08T00:41:46;1.00;99.90
10155;DHT22;5118;48.570;7.916;2024-03-08T00:44:15;0.90;99.90
10155;DHT22;5118;48.570;7.916;2024-03-08T00:46:46;0.90;99.90
10155;DHT22;5118;48.570;7.916;2024-03-08T00:49:17;0.80;99.90
10155;DHT22;5118;48.570;7.916;2024-03-08T00:51:45;0.80;99.90
10155;DHT22;5118;48.570;7.916;2024-03-08T00:54:14;0.70;99.90
10155;DHT22;5118;48.570;7.916;2024-03-08T00:56:44;0.70;99.90
10155;DHT22;5118;48.570;7.916;2024-03-08T00:59:13;0.70;99.90
10155;DHT22;5118;48.570;7.916;2024-03-08T01:01:41;0.60;99.90
10155;DHT22;5118;48.570;7.916;2024-03-08T01:04:12;0.60;99.90
10155;DHT22;5118;48.570;7.916;2024-03-08T01:06:41;0.50;99.90
10155;DHT22;5118;48.570;7.916;2024-03-08T01:09:14;0.50;99.90
10155;DHT22;5118;48.570;7.916;2024-03-08T01:11:45;0.50;99.90
10155;DHT22;5118;48.570;7.916;2024-03-08T01:14:14;0.40;99.90
10155;DHT22;5118;48.570;7.916;2024-03-08T01:16:42;0.40;99.90
10155;DHT22;5118;48.570;7.916;2024-03-08T01:19:12;0.40;99.90
10155;DHT22;5118;48.570;7.916;2024-03-08T01:21:41;0.40;99.90
10155;DHT22;5118;48.570;7.916;2024-03-08T01:24:09;0.40;99.90
10155;DHT22;5118;48.570;7.916;2024-03-08T01:26:38;0.40;99.90
10155;DHT22;5118;48.570;7.916;2024-03-08T01:29:07;0.40;99.90
10155;DHT22;5118;48.570;7.916;2024-03-08T01:31:35;0.40;99.90
10155;DHT22;5118;48.570;7.916;2024-03-08T01:34:04;0.40;99.90
10155;DHT22;5118;48.570;7.916;2024-03-08T01:36:34;0.40;99.90
10155;DHT22;5118;48.570;7.916;2024-03-08T01:39:04;0.30;99.90
10155;DHT22;5118;48.570;7.916;2024-03-08T01:41:35;0.30;99.90
10155;DHT22;5118;48.570;7.916;2024-03-08T01:44:04;0.40;99.90
10155;DHT22;5118;48.570;7.916;2024-03-08T01:46:35;0.40;99.90
10155;DHT22;5118;48.570;7.916;2024-03-08T01:49:03;0.40;99.90
10155;DHT22;5118;48.570;7.916;2024-03-08T01:51:34;0.30;99.90
10155;DHT22;5118;48.570;7.916;2024-03-08T01:54:03;0.30;99.90
10155;DHT22;5118;48.570;7.916;2024-03-08T01:56:32;0.30;99.90
10155;DHT22;5118;48.570;7.916;2024-03-08T01:59:01;0.30;99.90
10155;DHT22;5118;48.570;7.916;2024-03-08T02:01:30;0.30;99.90
10155;DHT22;5118;48.570;7.916;2024-03-08T02:03:58;0.20;99.90
10155;DHT22;5118;48.570;7.916;2024-03-08T02:06:27;0.20;99.90
10155;DHT22;5118;48.570;7.916;2024-03-08T02:08:58;0.20;99.90
10155;DHT22;5118;48.570;7.916;2024-03-08T02:11:27;0.10;99.90
10155;DHT22;5118;48.570;7.916;2024-03-08T02:13:56;0.10;99.90
10155;DHT22;5118;48.570;7.916;2024-03-08T02:16:24;0.10;99.90
10155;DHT22;5118;48.570;7.916;2024-03-08T02:18:52;0.10;99.90
10155;DHT22;5118;48.570;7.916;2024-03-08T02:21:23;0.10;99.90
10155;DHT22;5118;48.570;7.916;2024-03-08T02:23:52;0.20;99.90
10155;DHT22;5118;48.570;7.916;2024-03-08T02:26:20;0.20;99.90
10155;DHT22;5118;48.570;7.916;2024-03-08T02:28:49;0.20;99.90
10155;DHT22;5118;48.570;7.916;2024-03-08T02:31:18;0.20;99.90
10155;DHT22;5118;48.570;7.916;2024-03-08T02:33:47;0.30;99.90
10155;DHT22;5118;48.570;7.916;2024-03-08T02:36:16;0.30;99.90
10155;DHT22;5118;48.570;7.916;2024-03-08T02:38:46;0.30;99.90
10155;DHT22;5118;48.570;7.916;2024-03-08T02:41:14;0.30;99.90
10155;DHT22;5118;48.570;7.916;2024-03-08T02:43:43;0.30;99.90
10155;DHT22;5118;48.570;7.916;2024-03-08T02:46:12;0.30;99.90
10155;DHT22;5118;48.570;7.916;2024-03-08T02:48:42;0.30;99.90
10155;DHT22;5118;48.570;7.916;2024-03-08T02:51:11;0.30;99.90
10155;DHT22;5118;48.570;7.916;2024-03-08T02:53:40;0.30;99.90
10155;DHT22;5118;48.570;7.916;2024-03-08T02:56:11;0.20;99.90
10155;DHT22;5118;48.570;7.916;2024-03-08T02:58:42;0.30;99.90
10155;DHT22;5118;48.570;7.916;2024-03-08T03:01:15;0.30;99.90
10155;DHT22;5118;48.570;7.916;2024-03-08T03:03:44;0.30;99.90
10155;DHT22;5118;48.570;7.916;2024-03-08T03:06:14;0.30;99.90
10155;DHT22;5118;48.570;7.916;2024-03-08T03:08:42;0.30;99.90
10155;DHT22;5118;48.570;7.916;2024-03-08T03:11:14;0.20;99.90
10155;DHT22;5118;48.570;7.916;2024-03-08T03:13:42;0.20;99.90
10155;DHT22;5118;48.570;7.916;2024-03-08T03:16:17;0.20;99.90
10155;DHT22;5118;48.570;7.916;2024-03-08T03:18:47;0.20;99.90
10155;DHT22;5118;48.570;7.916;2024-03-08T03:21:16;0.20;99.90
10155;DHT22;5118;48.570;7.916;2024-03-08T03:23:45;0.20;99.90
10155;DHT22;5118;48.570;7.916;2024-03-08T03:26:17;0.20;99.90
10155;DHT22;5118;48.570;7.916;2024-03-08T03:28:45;0.20;99.90
10155;DHT22;5118;48.570;7.916;2024-03-08T03:31:15;0.30;99.90
10155;DHT22;5118;48.570;7.916;2024-03-08T03:33:45;0.40;99.90
10155;DHT22;5118;48.570;7.916;2024-03-08T03:36:14;0.50;99.90
10155;DHT22;5118;48.570;7.916;2024-03-08T03:38:43;0.70;99.90
10155;DHT22;5118;48.570;7.916;2024-03-08T03:41:12;0.90;99.90
10155;DHT22;5118;48.570;7.916;2024-03-08T03:43:43;1.00;99.90
10155;DHT22;5118;48.570;7.916;2024-03-08T03:46:11;1.20;99.90
10155;DHT22;5118;48.570;7.916;2024-03-08T03:48:39;1.30;99.90
10155;DHT22;5118;48.570;7.916;2024-03-08T03:51:10;1.40;99.90
10155;DHT22;5118;48.570;7.916;2024-03-08T03:53:39;1.30;99.90
10155;DHT22;5118;48.570;7.916;2024-03-08T03:56:07;1.30;99.90
10155;DHT22;5118;48.570;7.916;2024-03-08T03:58:35;1.20;99.90
10155;DHT22;5118;48.570;7.916;2024-03-08T04:01:06;1.10;99.90
10155;DHT22;5118;48.570;7.916;2024-03-08T04:03:34;1.00;99.90
10155;DHT22;5118;48.570;7.916;2024-03-08T04:06:04;0.90;99.90
10155;DHT22;5118;48.570;7.916;2024-03-08T04:08:32;0.80;99.90
10155;DHT22;5118;48.570;7.916;2024-03-08T04:11:02;0.70;99.90
10155;DHT22;5118;48.570;7.916;2024-03-08T04:13:30;0.70;99.90
10155;DHT22;5118;48.570;7.916;2024-03-08T04:15:59;0.60;99.90
10155;DHT22;5118;48.570;7.916;2024-03-08T04:18:28;0.60;99.90
10155;DHT22;5118;48.570;7.916;2024-03-08T04:20:57;0.50;99.90
10155;DHT22;5118;48.570;7.916;2024-03-08T04:23:25;0.40;99.90
10155;DHT22;5118;48.570;7.916;2024-03-08T04:25:55;0.40;99.90
10155;DHT22;5118;48.570;7.916;2024-03-08T04:28:24;0.30;99.90
10155;DHT22;5118;48.570;7.916;2024-03-08T04:30:53;0.30;99.90
10155;DHT22;5118;48.570;7.916;2024-03-08T04:33:21;0.20;99.90
10155;DHT22;5118;48.570;7.916;2024-03-08T04:35:52;0.20;99.90
10155;DHT22;5118;48.570;7.916;2024-03-08T04:38:21;0.10;99.90
10155;DHT22;5118;48.570;7.916;2024-03-08T04:40:49;0.10;99.90
10155;DHT22;5118;48.570;7.916;2024-03-08T04:43:18;0.00;99.90
10155;DHT22;5118;48.570;7.916;2024-03-08T04:45:47;0.00;99.90
10155;DHT22;5118;48.570;7.916;2024-03-08T04:48:16;0.00;99.90
10155;DHT22;5118;48.570;7.916;2024-03-08T04:50:44;0.00;99.90
10155;DHT22;5118;48.570;7.916;2024-03-08T04:53:14;0.00;99.90
10155;DHT22;5118;48.570;7.916;2024-03-08T04:55:42;0.00;99.90
10155;DHT22;5118;48.570;7.916;2024-03-08T04:58:11;0.00;99.90
10155;DHT22;5118;48.570;7.916;2024-03-08T05:00:39;0.00;99.90
10155;DHT22;5118;48.570;7.916;2024-03-08T05:03:08;0.00;99.90
10155;DHT22;5118;48.570;7.916;2024-03-08T05:05:36;0.00;99.90
10155;DHT22;5118;48.570;7.916;2024-03-08T05:08:06;0.00;99.90
10155;DHT22;5118;48.570;7.916;2024-03-08T05:10:35;0.00;99.90
10155;DHT22;5118;48.570;7.916;2024-03-08T05:13:04;0.00;99.90
10155;DHT22;5118;48.570;7.916;2024-03-08T05:15:32;-0.10;99.90
10155;DHT22;5118;48.570;7.916;2024-03-08T05:18:02;-0.10;99.90
10155;DHT22;5118;48.570;7.916;2024-03-08T05:20:31;-0.10;99.90
10155;DHT22;5118;48.570;7.916;2024-03-08T05:22:59;-0.20;99.90
10155;DHT22;5118;48.570;7.916;2024-03-08T05:25:28;-0.20;99.90
10155;DHT22;5118;48.570;7.916;2024-03-08T05:27:58;-0.20;99.90
10155;DHT22;5118;48.570;7.916;2024-03-08T05:30:26;-0.20;99.90
10155;DHT22;5118;48.570;7.916;2024-03-08T05:32:54;-0.30;99.90
10155;DHT22;5118;48.570;7.916;2024-03-08T05:35:24;-0.30;99.90
10155;DHT22;5118;48.570;7.916;2024-03-08T05:37:52;-0.30;99.90
10155;DHT22;5118;48.570;7.916;2024-03-08T05:40:21;-0.30;99.90
10155;DHT22;5118;48.570;7.916;2024-03-08T05:42:49;-0.30;99.90
10155;DHT22;5118;48.570;7.916;2024-03-08T05:45:19;-0.30;99.90
10155;DHT22;5118;48.570;7.916;2024-03-08T05:47:48;-0.30;99.90
10155;DHT22;5118;48.570;7.916;2024-03-08T05:50:16;-0.40;99.90
10155;DHT22;5118;48.570;7.916;2024-03-08T05:52:45;-0.40;99.90
10155;DHT22;5118;48.570;7.916;2024-03-08T05:55:14;-0.40;99.90
10155;DHT22;5118;48.570;7.916;2024-03-08T05:57:43;-0.40;99.90
10155;DHT22;5118;48.570;7.916;2024-03-08T06:00:12;-0.50;99.90
10155;DHT22;5118;48.570;7.916;2024-03-08T06:02:44;-0.50;99.90
10155;DHT22;5118;48.570;7.916;2024-03-08T06:05:13;-0.50;99.90
10155;DHT22;5118;48.570;7.916;2024-03-08T06:07:42;-0.60;99.90
10155;DHT22;5118;48.570;7.916;2024-03-08T06:10:11;-0.60;99.90
10155;DHT22;5118;48.570;7.916;2024-03-08T06:12:40;-0.60;99.90
10155;DHT22;5118;48.570;7.916;2024-03-08T06:15:09;-0.60;99.90
10155;DHT22;5118;48.570;7.916;2024-03-08T06:17:41;-0.50;99.90
10155;DHT22;5118;48.570;7.916;2024-03-08T06:20:12;-0.50;99.90
10155;DHT22;5118;48.570;7.916;2024-03-08T06:22:42;-0.50;99.90
10155;DHT22;5118;48.570;7.916;2024-03-08T06:25:12;-0.50;99.90
10155;DHT22;5118;48.570;7.916;2024-03-08T06:27:44;-0.40;99.90
10155;DHT22;5118;48.570;7.916;2024-03-08T06:30:14;-0.40;99.90
10155;DHT22;5118;48.570;7.916;2024-03-08T06:32:43;-0.40;99.90
10155;DHT22;5118;48.570;7.916;2024-03-08T06:35:13;-0.30;99.90
10155;DHT22;5118;48.570;7.916;2024-03-08T06:37:43;-0.30;99.90
10155;DHT22;5118;48.570;7.916;2024-03-08T06:40:12;-0.30;99.90
10155;DHT22;5118;48.570;7.916;2024-03-08T06:42:42;-0.20;99.90
10155;DHT22;5118;48.570;7.916;2024-03-08T06:45:10;-0.20;99.90
10155;DHT22;5118;48.570;7.916;2024-03-08T06:47:40;-0.20;99.90
10155;DHT22;5118;48.570;7.916;2024-03-08T06:50:10;-0.10;99.90
10155;DHT22;5118;48.570;7.916;2024-03-08T06:52:41;-0.10;99.90
10155;DHT22;5118;48.570;7.916;2024-03-08T06:55:11;0.00;99.90
10155;DHT22;5118;48.570;7.916;2024-03-08T06:57:42;0.10;99.90
10155;DHT22;5118;48.570;7.916;2024-03-08T07:00:11;0.10;99.90
10155;DHT22;5118;48.570;7.916;2024-03-08T07:02:46;0.20;99.90
10155;DHT22;5118;48.570;7.916;2024-03-08T07:05:16;0.30;99.90
10155;DHT22;5118;48.570;7.916;2024-03-08T07:07:46;0.30;99.90
10155;DHT22;5118;48.570;7.916;2024-03-08T07:10:16;0.40;99.90
10155;DHT22;5118;48.570;7.916;2024-03-08T07:12:46;0.60;99.90
10155;DHT22;5118;48.570;7.916;2024-03-08T07:15:15;0.70;99.90
10155;DHT22;5118;48.570;7.916;2024-03-08T07:17:47;0.80;99.90
10155;DHT22;5118;48.570;7.916;2024-03-08T07:20:16;1.00;99.90
10155;DHT22;5118;48.570;7.916;2024-03-08T07:22:47;1.10;99.90
10155;DHT22;5118;48.570;7.916;2024-03-08T07:25:18;1.30;99.90
10155;DHT22;5118;48.570;7.916;2024-03-08T07:27:50;1.40;99.90
10155;DHT22;5118;48.570;7.916;2024-03-08T07:30:19;1.60;99.90
10155;DHT22;5118;48.570;7.916;2024-03-08T07:33:17;1.70;99.90
10155;DHT22;5118;48.570;7.916;2024-03-08T07:35:46;1.80;99.90
10155;DHT22;5118;48.570;7.916;2024-03-08T07:38:18;1.80;99.90
10155;DHT22;5118;48.570;7.916;2024-03-08T07:40:48;1.90;99.90
10155;DHT22;5118;48.570;7.916;2024-03-08T07:43:16;2.00;99.90
10155;DHT22;5118;48.570;7.916;2024-03-08T07:45:44;2.00;99.90
10155;DHT22;5118;48.570;7.916;2024-03-08T07:48:13;2.10;99.90
10155;DHT22;5118;48.570;7.916;2024-03-08T07:50:42;2.10;99.90
10155;DHT22;5118;48.570;7.916;2024-03-08T07:53:10;2.20;99.90
10155;DHT22;5118;48.570;7.916;2024-03-08T07:55:40;2.30;99.90
10155;DHT22;5118;48.570;7.916;2024-03-08T07:58:09;2.30;99.90
10155;DHT22;5118;48.570;7.916;2024-03-08T08:00:39;2.40;99.90
10155;DHT22;5118;48.570;7.916;2024-03-08T08:03:10;2.50;99.90
10155;DHT22;5118;48.570;7.916;2024-03-08T08:05:40;2.60;99.90
10155;DHT22;5118;48.570;7.916;2024-03-08T08:08:08;2.70;99.90
10155;DHT22;5118;48.570;7.916;2024-03-08T08:10:40;2.80;99.90
10155;DHT22;5118;48.570;7.916;2024-03-08T08:13:09;2.90;99.90
10155;DHT22;5118;48.570;7.916;2024-03-08T08:15:38;3.00;99.90
10155;DHT22;5118;48.570;7.916;2024-03-08T08:18:06;3.10;99.90
10155;DHT22;5118;48.570;7.916;2024-03-08T08:20:37;3.20;99.90
10155;DHT22;5118;48.570;7.916;2024-03-08T08:23:06;3.30;99.90
10155;DHT22;5118;48.570;7.916;2024-03-08T08:25:36;3.40;99.90
10155;DHT22;5118;48.570;7.916;2024-03-08T08:28:06;3.50;99.90
10155;DHT22;5118;48.570;7.916;2024-03-08T08:30:35;3.60;99.90
10155;DHT22;5118;48.570;7.916;2024-03-08T08:33:04;3.70;99.90
10155;DHT22;5118;48.570;7.916;2024-03-08T08:35:33;3.80;99.90
10155;DHT22;5118;48.570;7.916;2024-03-08T08:38:01;3.90;99.90
10155;DHT22;5118;48.570;7.916;2024-03-08T08:40:31;4.00;99.90
10155;DHT22;5118;48.570;7.916;2024-03-08T08:43:00;4.10;99.90
10155;DHT22;5118;48.570;7.916;2024-03-08T08:45:32;4.20;99.90
10155;DHT22;5118;48.570;7.916;2024-03-08T08:48:01;4.30;99.90
10155;DHT22;5118;48.570;7.916;2024-03-08T08:50:30;4.40;99.90
10155;DHT22;5118;48.570;7.916;2024-03-08T08:52:58;4.50;99.90
10155;DHT22;5118;48.570;7.916;2024-03-08T08:55:27;4.60;99.90
10155;DHT22;5118;48.570;7.916;2024-03-08T08:57:56;4.70;99.90
10155;DHT22;5118;48.570;7.916;2024-03-08T09:00:24;4.70;99.90
10155;DHT22;5118;48.570;7.916;2024-03-08T09:02:56;4.80;99.90
10155;DHT22;5118;48.570;7.916;2024-03-08T09:05:26;4.90;99.90
10155;DHT22;5118;48.570;7.916;2024-03-08T09:07:55;5.00;99.90
10155;DHT22;5118;48.570;7.916;2024-03-08T09:10:23;5.10;99.90
10155;DHT22;5118;48.570;7.916;2024-03-08T09:12:55;5.20;99.90
10155;DHT22;5118;48.570;7.916;2024-03-08T09:15:23;5.30;99.90
10155;DHT22;5118;48.570;7.916;2024-03-08T09:17:58;5.40;99.90
10155;DHT22;5118;48.570;7.916;2024-03-08T09:20:27;5.40;99.90
10155;DHT22;5118;48.570;7.916;2024-03-08T09:22:56;5.50;99.90
10155;DHT22;5118;48.570;7.916;2024-03-08T09:25:25;5.70;99.90
10155;DHT22;5118;48.570;7.916;2024-03-08T09:27:54;5.80;99.90
10155;DHT22;5118;48.570;7.916;2024-03-08T09:30:22;5.90;99.90
10155;DHT22;5118;48.570;7.916;2024-03-08T09:32:51;6.00;99.90
10155;DHT22;5118;48.570;7.916;2024-03-08T09:35:22;6.10;99.90
10155;DHT22;5118;48.570;7.916;2024-03-08T09:37:51;6.20;99.90
10155;DHT22;5118;48.570;7.916;2024-03-08T09:40:19;6.30;99.90
10155;DHT22;5118;48.570;7.916;2024-03-08T09:42:50;6.40;99.90
10155;DHT22;5118;48.570;7.916;2024-03-08T09:45:20;6.50;99.90
10155;DHT22;5118;48.570;7.916;2024-03-08T09:47:51;6.60;99.90
10155;DHT22;5118;48.570;7.916;2024-03-08T09:50:21;6.70;99.90
10155;DHT22;5118;48.570;7.916;2024-03-08T09:52:50;6.70;99.90
10155;DHT22;5118;48.570;7.916;2024-03-08T09:55:19;6.90;99.90
10155;DHT22;5118;48.570;7.916;2024-03-08T09:57:51;7.00;99.90
10155;DHT22;5118;48.570;7.916;2024-03-08T10:00:55;7.10;99.90
10155;DHT22;5118;48.570;7.916;2024-03-08T10:03:24;7.20;99.90
10155;DHT22;5118;48.570;7.916;2024-03-08T10:05:56;7.30;99.90
10155;DHT22;5118;48.570;7.916;2024-03-08T10:08:27;7.40;99.90
10155;DHT22;5118;48.570;7.916;2024-03-08T10:10:57;7.50;99.90
10155;DHT22;5118;48.570;7.916;2024-03-08T10:13:26;7.70;99.90
10155;DHT22;5118;48.570;7.916;2024-03-08T10:15:55;7.80;99.90
10155;DHT22;5118;48.570;7.916;2024-03-08T10:18:23;8.00;99.90
10155;DHT22;5118;48.570;7.916;2024-03-08T10:21:08;8.10;99.90
10155;DHT22;5118;48.570;7.916;2024-03-08T10:23:38;8.30;99.90
10155;DHT22;5118;48.570;7.916;2024-03-08T10:26:10;8.40;99.90
10155;DHT22;5118;48.570;7.916;2024-03-08T10:28:42;8.50;99.90
10155;DHT22;5118;48.570;7.916;2024-03-08T10:31:11;8.50;99.90
10155;DHT22;5118;48.570;7.916;2024-03-08T10:33:45;8.60;99.90
10155;DHT22;5118;48.570;7.916;2024-03-08T10:36:15;8.60;99.90
10155;DHT22;5118;48.570;7.916;2024-03-08T10:38:46;8.60;99.90
10155;DHT22;5118;48.570;7.916;2024-03-08T10:41:16;8.70;99.90
10155;DHT22;5118;48.570;7.916;2024-03-08T10:46:45;8.70;99.90
10155;DHT22;5118;48.570;7.916;2024-03-08T10:49:19;9.00;99.90
10155;DHT22;5118;48.570;7.916;2024-03-08T10:51:54;9.50;99.90
10155;DHT22;5118;48.570;7.916;2024-03-08T10:54:25;10.00;99.90
10155;DHT22;5118;48.570;7.916;2024-03-08T10:56:54;10.80;99.90
10155;DHT22;5118;48.570;7.916;2024-03-08T10:59:24;11.50;99.90
10155;DHT22;5118;48.570;7.916;2024-03-08T11:01:54;12.10;99.90
10155;DHT22;5118;48.570;7.916;2024-03-08T11:04:23;12.80;99.90
10155;DHT22;5118;48.570;7.916;2024-03-08T11:06:53;13.30;99.90
10155;DHT22;5118;48.570;7.916;2024-03-08T11:09:30;13.80;99.90
10155;DHT22;5118;48.570;7.916;2024-03-08T11:12:18;14.40;99.90
10155;DHT22;5118;48.570;7.916;2024-03-08T11:14:49;14.90;99.90
10155;DHT22;5118;48.570;7.916;2024-03-08T11:17:20;15.20;99.90
10155;DHT22;5118;48.570;7.916;2024-03-08T11:19:49;15.50;99.90
10155;DHT22;5118;48.570;7.916;2024-03-08T11:22:27;15.80;99.90
10155;DHT22;5118;48.570;7.916;2024-03-08T11:24:59;16.30;99.90
10155;DHT22;5118;48.570;7.916;2024-03-08T11:27:30;16.90;99.90
10155;DHT22;5118;48.570;7.916;2024-03-08T11:30:01;17.20;99.90
10155;DHT22;5118;48.570;7.916;2024-03-08T11:32:45;17.60;99.90
10155;DHT22;5118;48.570;7.916;2024-03-08T11:35:19;17.80;95.10
10155;DHT22;5118;48.570;7.916;2024-03-08T11:37:49;18.00;96.60
10155;DHT22;5118;48.570;7.916;2024-03-08T11:40:19;18.20;95.90
10155;DHT22;5118;48.570;7.916;2024-03-08T11:42:50;18.70;93.90
10155;DHT22;5118;48.570;7.916;2024-03-08T11:45:19;19.00;90.30
10155;DHT22;5118;48.570;7.916;2024-03-08T11:47:48;19.40;88.50
10155;DHT22;5118;48.570;7.916;2024-03-08T11:50:18;19.80;84.40
10155;DHT22;5118;48.570;7.916;2024-03-08T11:52:50;20.20;80.60
10155;DHT22;5118;48.570;7.916;2024-03-08T11:55:18;20.80;72.90
10155;DHT22;5118;48.570;7.916;2024-03-08T11:57:48;21.30;69.20
10155;DHT22;5118;48.570;7.916;2024-03-08T12:00:18;21.80;60.60
10155;DHT22;5118;48.570;7.916;2024-03-08T12:03:06;22.20;55.60
10155;DHT22;5118;48.570;7.916;2024-03-08T12:05:36;22.50;32.40
10155;DHT22;5118;48.570;7.916;2024-03-08T12:08:08;23.10;29.50
10155;DHT22;5118;48.570;7.916;2024-03-08T12:10:40;23.20;28.40
10155;DHT22;5118;48.570;7.916;2024-03-08T12:13:09;23.10;26.70
10155;DHT22;5118;48.570;7.916;2024-03-08T12:15:40;22.90;27.40
10155;DHT22;5118;48.570;7.916;2024-03-08T12:18:11;22.70;25.60
10155;DHT22;5118;48.570;7.916;2024-03-08T12:20:40;22.60;24.50
10155;DHT22;5118;48.570;7.916;2024-03-08T12:23:15;22.80;26.60
10155;DHT22;5118;48.570;7.916;2024-03-08T12:25:44;23.30;26.90
10155;DHT22;5118;48.570;7.916;2024-03-08T12:28:13;23.80;24.90
10155;DHT22;5118;48.570;7.916;2024-03-08T12:30:46;24.20;20.60
10155;DHT22;5118;48.570;7.916;2024-03-08T12:33:16;24.40;21.50
10155;DHT22;5118;48.570;7.916;2024-03-08T12:35:51;24.80;21.30
10155;DHT22;5118;48.570;7.916;2024-03-08T12:38:27;25.20;18.80
10155;DHT22;5118;48.570;7.916;2024-03-08T12:40:58;25.70;15.40
10155;DHT22;5118;48.570;7.916;2024-03-08T12:43:27;26.00;18.50
10155;DHT22;5118;48.570;7.916;2024-03-08T12:45:58;26.40;16.80
10155;DHT22;5118;48.570;7.916;2024-03-08T12:48:27;26.50;13.80
10155;DHT22;5118;48.570;7.916;2024-03-08T12:50:55;26.50;11.80
10155;DHT22;5118;48.570;7.916;2024-03-08T12:53:25;26.20;10.00
10155;DHT22;5118;48.570;7.916;2024-03-08T12:55:56;25.80;9.00
10155;DHT22;5118;48.570;7.916;2024-03-08T12:58:25;25.60;8.60
10155;DHT22;5118;48.570;7.916;2024-03-08T13:00:54;25.30;7.30
10155;DHT22;5118;48.570;7.916;2024-03-08T13:03:22;25.10;8.60
10155;DHT22;5118;48.570;7.916;2024-03-08T13:05:51;25.30;8.70
10155;DHT22;5118;48.570;7.916;2024-03-08T13:08:20;25.80;9.00
10155;DHT22;5118;48.570;7.916;2024-03-08T13:10:53;26.90;4.40
10155;DHT22;5118;48.570;7.916;2024-03-08T13:13:23;27.20;4.40
10155;DHT22;5118;48.570;7.916;2024-03-08T13:15:52;27.90;1.00
10155;DHT22;5118;48.570;7.916;2024-03-08T13:18:23;27.60;2.10
10155;DHT22;5118;48.570;7.916;2024-03-08T13:20:52;27.70;3.50
10155;DHT22;5118;48.570;7.916;2024-03-08T13:23:21;28.00;3.00
10155;DHT22;5118;48.570;7.916;2024-03-08T13:25:50;28.20;2.80
10155;DHT22;5118;48.570;7.916;2024-03-08T13:28:20;28.30;3.10
10155;DHT22;5118;48.570;7.916;2024-03-08T13:30:51;28.50;2.40
10155;DHT22;5118;48.570;7.916;2024-03-08T13:33:26;28.60;1.00
10155;DHT22;5118;48.570;7.916;2024-03-08T13:35:55;28.80;1.00
10155;DHT22;5118;48.570;7.916;2024-03-08T13:38:32;29.10;1.00
10155;DHT22;5118;48.570;7.916;2024-03-08T13:41:01;28.80;1.00
10155;DHT22;5118;48.570;7.916;2024-03-08T13:43:31;28.60;1.00
10155;DHT22;5118;48.570;7.916;2024-03-08T13:46:02;28.40;1.00
10155;DHT22;5118;48.570;7.916;2024-03-08T13:48:30;28.40;1.00
10155;DHT22;5118;48.570;7.916;2024-03-08T13:50:59;28.40;1.00
10155;DHT22;5118;48.570;7.916;2024-03-08T13:53:28;28.40;1.00
10155;DHT22;5118;48.570;7.916;2024-03-08T13:55:56;28.40;1.00
10155;DHT22;5118;48.570;7.916;2024-03-08T13:58:25;28.00;1.00
10155;DHT22;5118;48.570;7.916;2024-03-08T14:00:55;28.20;1.00
10155;DHT22;5118;48.570;7.916;2024-03-08T14:03:24;28.00;1.00
10155;DHT22;5118;48.570;7.916;2024-03-08T14:05:52;27.40;1.00
10155;DHT22;5118;48.570;7.916;2024-03-08T14:08:22;27.30;1.00
10155;DHT22;5118;48.570;7.916;2024-03-08T14:10:52;27.00;1.00
10155;DHT22;5118;48.570;7.916;2024-03-08T14:13:21;26.90;1.00
10155;DHT22;5118;48.570;7.916;2024-03-08T14:15:51;26.90;1.00
10155;DHT22;5118;48.570;7.916;2024-03-08T14:18:21;26.90;1.00
10155;DHT22;5118;48.570;7.916;2024-03-08T14:20:50;26.90;1.00
10155;DHT22;5118;48.570;7.916;2024-03-08T14:23:18;26.90;1.00
10155;DHT22;5118;48.570;7.916;2024-03-08T14:25:49;27.20;1.00
10155;DHT22;5118;48.570;7.916;2024-03-08T14:28:19;27.60;1.00
10155;DHT22;5118;48.570;7.916;2024-03-08T14:30:49;28.10;1.00
10155;DHT22;5118;48.570;7.916;2024-03-08T14:33:21;28.40;1.00
10155;DHT22;5118;48.570;7.916;2024-03-08T14:35:51;28.70;1.00
10155;DHT22;5118;48.570;7.916;2024-03-08T14:38:20;28.80;1.00
10155;DHT22;5118;48.570;7.916;2024-03-08T14:40:48;28.70;1.00
10155;DHT22;5118;48.570;7.916;2024-03-08T14:43:17;28.40;1.00
10155;DHT22;5118;48.570;7.916;2024-03-08T14:45:47;27.90;1.00
10155;DHT22;5118;48.570;7.916;2024-03-08T14:48:15;27.60;1.00
10155;DHT22;5118;48.570;7.916;2024-03-08T14:50:45;27.60;1.00
10155;DHT22;5118;48.570;7.916;2024-03-08T14:53:15;27.60;1.00
10155;DHT22;5118;48.570;7.916;2024-03-08T14:55:45;27.60;1.00
10155;DHT22;5118;48.570;7.916;2024-03-08T14:58:15;27.60;1.00
10155;DHT22;5118;48.570;7.916;2024-03-08T15:00:43;27.70;1.00
10155;DHT22;5118;48.570;7.916;2024-03-08T15:03:13;27.70;1.00
10155;DHT22;5118;48.570;7.916;2024-03-08T15:05:45;27.90;1.00
10155;DHT22;5118;48.570;7.916;2024-03-08T15:08:16;28.10;1.00
10155;DHT22;5118;48.570;7.916;2024-03-08T15:10:50;28.10;1.00
10155;DHT22;5118;48.570;7.916;2024-03-08T15:13:22;27.80;1.00
10155;DHT22;5118;48.570;7.916;2024-03-08T15:15:55;27.40;1.00
10155;DHT22;5118;48.570;7.916;2024-03-08T15:18:25;26.70;1.00
10155;DHT22;5118;48.570;7.916;2024-03-08T15:20:59;26.20;1.00
10155;DHT22;5118;48.570;7.916;2024-03-08T15:23:28;25.60;1.00
10155;DHT22;5118;48.570;7.916;2024-03-08T15:25:56;25.40;1.00
10155;DHT22;5118;48.570;7.916;2024-03-08T15:28:25;24.70;1.00
10155;DHT22;5118;48.570;7.916;2024-03-08T15:31:02;23.90;1.00
10155;DHT22;5118;48.570;7.916;2024-03-08T15:33:33;23.30;1.00
10155;DHT22;5118;48.570;7.916;2024-03-08T15:36:08;22.90;1.00
10155;DHT22;5118;48.570;7.916;2024-03-08T15:38:38;22.40;1.00
10155;DHT22;5118;48.570;7.916;2024-03-08T15:41:07;21.90;1.00
10155;DHT22;5118;48.570;7.916;2024-03-08T15:43:37;21.40;1.00
10155;DHT22;5118;48.570;7.916;2024-03-08T15:46:07;20.90;1.00
10155;DHT22;5118;48.570;7.916;2024-03-08T15:48:37;20.40;1.00
10155;DHT22;5118;48.570;7.916;2024-03-08T15:51:08;20.00;1.00
10155;DHT22;5118;48.570;7.916;2024-03-08T15:53:38;19.40;1.00
10155;DHT22;5118;48.570;7.916;2024-03-08T15:56:06;18.80;1.00
10155;DHT22;5118;48.570;7.916;2024-03-08T15:58:36;18.10;1.00
10155;DHT22;5118;48.570;7.916;2024-03-08T16:01:06;17.50;1.00
10155;DHT22;5118;48.570;7.916;2024-03-08T16:03:35;16.90;1.00
10155;DHT22;5118;48.570;7.916;2024-03-08T16:06:03;16.30;1.30
10155;DHT22;5118;48.570;7.916;2024-03-08T16:08:35;15.70;1.20
10155;DHT22;5118;48.570;7.916;2024-03-08T16:11:06;15.10;1.90
10155;DHT22;5118;48.570;7.916;2024-03-08T16:13:35;14.60;3.40
10155;DHT22;5118;48.570;7.916;2024-03-08T16:16:06;14.10;4.10
10155;DHT22;5118;48.570;7.916;2024-03-08T16:18:35;13.70;4.40